createdAt,value
2023-05-10T00:01:41.375Z,94277.81
2023-05-10T00:04:08.588Z,94279.25
2023-05-10T00:06:35.496Z,94280.59
2023-05-10T00:09:02.088Z,94275.53
2023-05-10T00:11:28.638Z,94282.47
2023-05-10T00:13:56.605Z,94285.16
2023-05-10T00:16:23.172Z,94294.59
2023-05-10T00:18:49.779Z,94282.75
2023-05-10T00:21:16.336Z,94279.34
2023-05-10T00:23:42.874Z,94291.25
2023-05-10T00:26:09.514Z,94284.88
2023-05-10T00:28:36.104Z,94285.91
2023-05-10T00:31:04.390Z,94276.81
2023-05-10T00:33:31.535Z,94275.13
2023-05-10T00:35:58.114Z,94269.25
2023-05-10T00:38:24.670Z,94277.00
2023-05-10T00:40:51.260Z,94276.19
2023-05-10T00:43:18.069Z,94271.75
2023-05-10T00:45:45.284Z,94271.41
2023-05-10T00:48:13.795Z,94275.34
2023-05-10T00:50:41.091Z,94268.00
2023-05-10T00:53:08.596Z,94263.59
2023-05-10T00:55:35.451Z,94266.16
2023-05-10T00:58:02.530Z,94263.22
2023-05-10T01:00:30.572Z,94253.28
2023-05-10T01:02:57.315Z,94252.19
2023-05-10T01:05:25.910Z,94253.00
2023-05-10T01:07:52.573Z,94255.16
2023-05-10T01:10:19.653Z,94258.63
2023-05-10T01:12:48.316Z,94253.56
2023-05-10T01:15:16.944Z,94247.94
2023-05-10T01:17:46.143Z,94253.88
2023-05-10T01:20:13.956Z,94245.03
2023-05-10T01:23:18.491Z,94241.50
2023-05-10T01:26:12.972Z,94239.69
2023-05-10T01:28:59.441Z,94248.00
2023-05-10T01:31:45.378Z,94237.59
2023-05-10T01:34:21.822Z,94246.69
2023-05-10T01:36:56.078Z,94239.47
2023-05-10T01:39:26.883Z,94234.09
2023-05-10T01:41:58.432Z,94238.69
2023-05-10T01:44:30.658Z,94239.47
2023-05-10T01:47:02.448Z,94240.03
2023-05-10T01:49:36.572Z,94234.09
2023-05-10T01:52:09.383Z,94238.00
2023-05-10T01:54:39.570Z,94238.97
2023-05-10T01:57:08.460Z,94247.31
2023-05-10T01:59:37.993Z,94241.22
2023-05-10T02:02:06.782Z,94244.03
2023-05-10T02:04:38.992Z,94251.25
2023-05-10T02:07:07.115Z,94242.94
2023-05-10T02:09:35.681Z,94247.00
2023-05-10T02:12:04.885Z,94253.69
2023-05-10T02:14:35.017Z,94242.72
2023-05-10T02:17:04.669Z,94250.56
2023-05-10T02:19:33.046Z,94253.47
2023-05-10T02:22:02.941Z,94254.78
2023-05-10T02:24:30.037Z,94255.63
2023-05-10T02:26:58.172Z,94259.38
2023-05-10T02:29:28.078Z,94255.63
2023-05-10T02:31:56.887Z,94258.38
2023-05-10T02:34:26.248Z,94249.00
2023-05-10T02:36:54.241Z,94256.69
2023-05-10T02:39:23.109Z,94259.09
2023-05-10T02:41:51.394Z,94261.56
2023-05-10T02:44:20.382Z,94273.34
2023-05-10T02:46:47.920Z,94273.56
2023-05-10T02:49:15.005Z,94270.44
2023-05-10T02:51:45.013Z,94274.38
2023-05-10T02:54:14.144Z,94269.31
2023-05-10T02:56:48.025Z,94278.41
2023-05-10T02:59:15.132Z,94286.72
2023-05-10T03:01:42.257Z,94282.72
2023-05-10T03:04:09.036Z,94286.19
2023-05-10T03:06:35.726Z,94288.09
2023-05-10T03:09:03.440Z,94284.66
2023-05-10T03:11:44.999Z,94280.97
2023-05-10T03:14:22.195Z,94272.94
2023-05-10T03:16:57.224Z,94284.66
2023-05-10T03:19:27.505Z,94283.56
2023-05-10T03:21:56.827Z,94283.22
2023-05-10T03:24:28.380Z,94292.97
2023-05-10T03:26:57.873Z,94290.59
2023-05-10T03:29:26.952Z,94288.06
2023-05-10T03:31:53.810Z,94284.13
2023-05-10T03:34:25.022Z,94285.38
2023-05-10T03:36:51.668Z,94281.16
2023-05-10T03:39:18.347Z,94285.16
2023-05-10T03:41:44.919Z,94288.84
2023-05-10T03:44:11.631Z,94288.00
2023-05-10T03:46:39.551Z,94295.72
2023-05-10T03:49:06.460Z,94301.03
2023-05-10T03:51:33.242Z,94302.66
2023-05-10T03:53:59.820Z,94298.13
2023-05-10T03:56:26.577Z,94301.88
2023-05-10T03:58:53.144Z,94308.59
2023-05-10T04:01:19.727Z,94309.34
2023-05-10T04:03:47.915Z,94310.44
2023-05-10T04:06:14.819Z,94316.28
2023-05-10T04:08:41.428Z,94318.41
2023-05-10T04:11:08.621Z,94324.81
2023-05-10T04:13:35.610Z,94319.03
2023-05-10T04:16:02.222Z,94307.25
2023-05-10T04:18:28.822Z,94317.63
2023-05-10T04:20:56.990Z,94321.66
2023-05-10T04:23:23.610Z,94325.16
2023-05-10T04:25:50.261Z,94322.31
2023-05-10T04:28:16.872Z,94318.84
2023-05-10T04:30:43.462Z,94326.03
2023-05-10T04:33:10.085Z,94329.72
2023-05-10T04:35:36.662Z,94323.78
2023-05-10T04:38:04.650Z,94336.81
2023-05-10T04:40:31.294Z,94331.38
2023-05-10T04:42:57.963Z,94332.13
2023-05-10T04:45:24.601Z,94329.84
2023-05-10T04:47:51.228Z,94338.84
2023-05-10T04:50:18.500Z,94339.91
2023-05-10T04:52:45.285Z,94342.56
2023-05-10T04:55:13.234Z,94342.59
2023-05-10T04:57:39.812Z,94338.88
2023-05-10T05:00:07.888Z,94345.00
2023-05-10T05:02:34.563Z,94343.47
2023-05-10T05:05:01.362Z,94343.53
2023-05-10T05:07:28.122Z,94355.44
2023-05-10T05:09:54.726Z,94340.78
2023-05-10T05:12:22.789Z,94356.47
2023-05-10T05:14:49.494Z,94355.81
2023-05-10T05:17:16.235Z,94362.13
2023-05-10T05:19:42.913Z,94367.41
2023-05-10T05:22:09.655Z,94363.00
2023-05-10T05:24:37.487Z,94373.81
2023-05-10T05:27:04.162Z,94371.91
2023-05-10T05:29:32.157Z,94371.81
2023-05-10T05:31:58.934Z,94375.19
2023-05-10T05:34:26.185Z,94378.69
2023-05-10T05:36:52.898Z,94364.25
2023-05-10T05:39:19.521Z,94378.28
2023-05-10T05:41:47.102Z,94377.97
2023-05-10T05:44:13.716Z,94383.97
2023-05-10T05:46:41.735Z,94387.69
2023-05-10T05:49:08.391Z,94388.16
2023-05-10T05:51:36.536Z,94395.34
2023-05-10T05:54:05.180Z,94400.50
2023-05-10T05:56:31.854Z,94397.88
2023-05-10T05:58:58.529Z,94409.03
2023-05-10T06:01:25.174Z,94407.44
2023-05-10T06:03:53.582Z,94415.31
2023-05-10T06:06:20.412Z,94408.94
2023-05-10T06:08:47.012Z,94416.47
2023-05-10T06:11:13.583Z,94417.22
2023-05-10T06:13:40.330Z,94419.69
2023-05-10T06:16:07.523Z,94421.81
2023-05-10T06:18:34.321Z,94430.59
2023-05-10T06:21:02.390Z,94428.22
2023-05-10T06:23:29.104Z,94440.16
2023-05-10T06:25:56.064Z,94436.69
2023-05-10T06:28:22.647Z,94427.16
2023-05-10T06:30:49.303Z,94432.13
2023-05-10T06:33:16.991Z,94431.13
2023-05-10T06:35:43.576Z,94433.00
2023-05-10T06:38:11.696Z,94433.19
2023-05-10T06:40:41.776Z,94438.88
2023-05-10T06:43:08.328Z,94439.34
2023-05-10T06:45:34.977Z,94430.34
2023-05-10T06:48:02.060Z,94433.53
2023-05-10T06:50:28.721Z,94433.53
2023-05-10T06:52:57.867Z,94434.00
2023-05-10T06:55:25.866Z,94435.63
2023-05-10T06:57:52.434Z,94431.63
2023-05-10T07:00:20.443Z,94438.59
2023-05-10T07:02:48.162Z,94434.81
2023-05-10T07:05:15.256Z,94439.63
2023-05-10T07:07:42.312Z,94447.66
2023-05-10T07:10:09.993Z,94450.28
2023-05-10T07:12:39.146Z,94451.09
2023-05-10T07:15:07.086Z,94450.34
2023-05-10T07:17:34.473Z,94450.56
2023-05-10T07:20:01.443Z,94456.19
2023-05-10T07:22:28.129Z,94453.78
2023-05-10T07:24:57.240Z,94457.75
2023-05-10T07:27:23.878Z,94456.72
2023-05-10T07:29:52.254Z,94460.59
2023-05-10T07:32:18.948Z,94454.44
2023-05-10T07:34:45.643Z,94451.84
2023-05-10T07:37:12.605Z,94458.88
2023-05-10T07:39:39.279Z,94456.72
2023-05-10T07:42:06.679Z,94442.84
2023-05-10T07:44:33.331Z,94459.38
2023-05-10T07:47:01.544Z,94462.56
2023-05-10T07:49:28.137Z,94465.78
2023-05-10T07:51:54.824Z,94457.25
2023-05-10T07:54:21.521Z,94461.41
2023-05-10T07:56:48.329Z,94461.50
2023-05-10T07:59:17.014Z,94466.84
2023-05-10T08:01:44.540Z,94459.38
2023-05-10T08:04:12.741Z,94469.50
2023-05-10T08:06:40.266Z,94469.78
2023-05-10T08:09:07.273Z,94468.72
2023-05-10T08:11:35.030Z,94477.25
2023-05-10T08:14:02.353Z,94474.03
2023-05-10T08:16:29.886Z,94465.22
2023-05-10T08:18:56.782Z,94479.91
2023-05-10T08:21:24.908Z,94468.50
2023-05-10T08:23:54.105Z,94472.97
2023-05-10T08:26:22.386Z,94467.50
2023-05-10T08:28:48.984Z,94471.16
2023-05-10T08:31:16.475Z,94472.72
2023-05-10T08:33:44.425Z,94473.50
2023-05-10T08:36:11.546Z,94470.56
2023-05-10T08:38:39.760Z,94477.91
2023-05-10T08:41:06.969Z,94469.66
2023-05-10T08:43:36.532Z,94465.81
2023-05-10T08:46:06.205Z,94474.53
2023-05-10T08:48:35.757Z,94469.91
2023-05-10T08:51:04.577Z,94470.44
2023-05-10T08:53:34.009Z,94463.53
2023-05-10T08:56:02.924Z,94472.19
2023-05-10T08:58:29.682Z,94473.16
2023-05-10T09:00:58.030Z,94475.09
2023-05-10T09:03:24.682Z,94465.41
2023-05-10T09:05:51.651Z,94477.50
2023-05-10T09:08:18.503Z,94481.50
2023-05-10T09:10:47.996Z,94471.91
2023-05-10T09:13:16.626Z,94473.22
2023-05-10T09:15:45.347Z,94480.78
2023-05-10T09:18:12.014Z,94489.44
2023-05-10T09:20:38.735Z,94491.22
2023-05-10T09:23:05.967Z,94496.41
2023-05-10T09:25:34.576Z,94496.69
2023-05-10T09:28:01.247Z,94496.13
2023-05-10T09:30:30.497Z,94493.75
2023-05-10T09:32:57.978Z,94486.00
2023-05-10T09:35:29.891Z,94484.69
2023-05-10T09:37:58.494Z,94483.09
2023-05-10T09:40:27.315Z,94485.50
2023-05-10T09:42:55.813Z,94487.34
2023-05-10T09:45:23.600Z,94486.44
2023-05-10T09:47:51.929Z,94496.66
2023-05-10T09:50:19.743Z,94493.88
2023-05-10T09:52:52.328Z,94493.78
2023-05-10T09:55:20.846Z,94483.34
2023-05-10T09:57:48.944Z,94488.88
2023-05-10T10:00:19.662Z,94489.22
2023-05-10T10:02:48.375Z,94490.28
2023-05-10T10:05:16.722Z,94491.59
2023-05-10T10:07:43.843Z,94492.41
2023-05-10T10:10:13.250Z,94489.44
2023-05-10T10:12:41.713Z,94491.88
2023-05-10T10:15:09.825Z,94490.88
2023-05-10T10:17:38.490Z,94487.75
2023-05-10T10:20:06.101Z,94490.53
2023-05-10T10:22:34.280Z,94500.94
2023-05-10T10:25:01.456Z,94499.88
2023-05-10T10:27:38.722Z,94493.47
2023-05-10T10:30:16.761Z,94502.25
2023-05-10T10:33:10.228Z,94498.53
2023-05-10T10:35:44.856Z,94501.19
2023-05-10T10:38:14.155Z,94491.88
2023-05-10T10:40:41.203Z,94500.56
2023-05-10T10:43:27.858Z,94498.81
2023-05-10T10:46:13.258Z,94492.16
2023-05-10T10:48:40.155Z,94495.88
2023-05-10T10:51:06.897Z,94494.81
2023-05-10T10:53:35.063Z,94492.16
2023-05-10T10:56:10.427Z,94502.53
2023-05-10T10:58:38.732Z,94499.28
2023-05-10T11:01:16.028Z,94485.44
2023-05-10T11:04:16.113Z,94491.03
2023-05-10T11:06:43.515Z,94488.94
2023-05-10T11:09:12.649Z,94484.06
2023-05-10T11:11:51.724Z,94492.06
2023-05-10T11:14:22.255Z,94495.19
2023-05-10T11:16:49.460Z,94498.81
2023-05-10T11:19:17.843Z,94497.75
2023-05-10T11:21:48.755Z,94496.66
2023-05-10T11:24:19.216Z,94492.41
2023-05-10T11:26:46.343Z,94494.00
2023-05-10T11:29:14.154Z,94489.75
2023-05-10T11:31:44.940Z,94500.13
2023-05-10T11:34:12.074Z,94506.63
2023-05-10T11:36:38.723Z,94505.09
2023-05-10T11:39:06.015Z,94509.34
2023-05-10T11:41:34.080Z,94511.56
2023-05-10T11:44:00.949Z,94504.13
2023-05-10T11:46:29.260Z,94506.25
2023-05-10T11:48:59.227Z,94506.25
2023-05-10T11:51:26.330Z,94508.41
2023-05-10T11:53:55.279Z,94516.03
2023-05-10T11:56:22.724Z,94506.78
2023-05-10T11:58:56.631Z,94511.31
2023-05-10T12:01:24.608Z,94484.94
2023-05-10T12:03:52.578Z,94501.47
2023-05-10T12:06:20.606Z,94518.91
2023-05-10T12:08:48.766Z,94518.78
2023-05-10T12:11:16.448Z,94507.13
2023-05-10T12:13:47.478Z,94510.53
2023-05-10T12:16:17.262Z,94513.31
2023-05-10T12:18:43.962Z,94522.34
2023-05-10T12:21:11.565Z,94516.91
2023-05-10T12:23:38.328Z,94519.09
2023-05-10T12:26:05.432Z,94514.63
2023-05-10T12:28:32.989Z,94525.59
2023-05-10T12:31:00.510Z,94523.28
2023-05-10T12:33:35.984Z,94538.75
2023-05-10T12:36:03.666Z,94543.28
2023-05-10T12:38:33.536Z,94541.16
2023-05-10T12:41:01.845Z,94552.59
2023-05-10T12:43:28.781Z,94555.03
2023-05-10T12:45:55.655Z,94555.25
2023-05-10T12:48:22.418Z,94553.47
2023-05-10T12:50:50.497Z,94553.72
2023-05-10T12:53:17.353Z,94553.09
2023-05-10T12:55:44.036Z,94548.59
2023-05-10T12:58:12.400Z,94549.66
2023-05-10T13:00:40.761Z,94546.75
2023-05-10T13:03:07.562Z,94547.28
2023-05-10T13:05:34.378Z,94545.38
2023-05-10T13:08:03.627Z,94549.41
2023-05-10T13:10:30.542Z,94543.84
2023-05-10T13:12:57.252Z,94546.94
2023-05-10T13:15:23.903Z,94543.91
2023-05-10T13:17:50.581Z,94543.78
2023-05-10T13:20:18.147Z,94544.59
2023-05-10T13:22:45.609Z,94546.44
2023-05-10T13:25:13.786Z,94539.81
2023-05-10T13:27:40.959Z,94547.00
2023-05-10T13:30:08.680Z,94544.09
2023-05-10T13:32:35.571Z,94540.34
2023-05-10T13:35:02.256Z,94538.22
2023-05-10T13:37:29.356Z,94539.81
2023-05-10T13:39:57.407Z,94535.56
2023-05-10T13:42:25.407Z,94542.69
2023-05-10T13:44:52.511Z,94542.34
2023-05-10T13:47:19.540Z,94537.91
2023-05-10T13:49:46.263Z,94540.88
2023-05-10T13:52:13.042Z,94538.75
2023-05-10T13:54:40.190Z,94537.69
2023-05-10T13:57:07.553Z,94532.91
2023-05-10T13:59:35.601Z,94537.69
2023-05-10T14:02:03.522Z,94535.28
2023-05-10T14:04:30.250Z,94532.09
2023-05-10T14:06:57.867Z,94541.13
2023-05-10T14:09:24.500Z,94535.59
2023-05-10T14:11:51.111Z,94541.94
2023-05-10T14:14:17.721Z,94550.72
2023-05-10T14:16:46.060Z,94552.22
2023-05-10T14:19:13.643Z,94551.56
2023-05-10T14:21:40.337Z,94550.53
2023-05-10T14:24:08.145Z,94552.09
2023-05-10T14:26:35.526Z,94557.03
2023-05-10T14:29:02.356Z,94552.63
2023-05-10T14:31:31.187Z,94562.34
2023-05-10T14:34:00.134Z,94556.41
2023-05-10T14:36:26.891Z,94564.03
2023-05-10T14:38:53.617Z,94568.03
2023-05-10T14:41:20.280Z,94574.19
2023-05-10T14:43:46.987Z,94570.44
2023-05-10T14:46:13.737Z,94568.31
2023-05-10T14:48:40.443Z,94571.66
2023-05-10T14:51:08.405Z,94571.75
2023-05-10T14:53:35.193Z,94576.25
2023-05-10T14:56:02.699Z,94579.50
2023-05-10T14:58:29.462Z,94568.00
2023-05-10T15:00:56.072Z,94581.53
2023-05-10T15:03:23.586Z,94577.50
2023-05-10T15:05:50.724Z,94582.41
2023-05-10T15:08:18.678Z,94589.06
2023-05-10T15:10:45.291Z,94591.38
2023-05-10T15:13:11.873Z,94602.81
2023-05-10T15:15:38.766Z,94599.91
2023-05-10T15:18:06.577Z,94598.88
2023-05-10T15:20:33.517Z,94602.59
2023-05-10T15:23:00.443Z,94600.59
2023-05-10T15:25:29.736Z,94599.63
2023-05-10T15:27:56.482Z,94611.59
2023-05-10T15:30:23.315Z,94610.53
2023-05-10T15:32:50.026Z,94607.56
2023-05-10T15:35:17.938Z,94610.25
2023-05-10T15:37:45.059Z,94609.75
2023-05-10T15:40:12.367Z,94611.84
2023-05-10T15:42:40.328Z,94606.25
2023-05-10T15:45:08.093Z,94619.44
2023-05-10T15:47:34.738Z,94615.00
2023-05-10T15:50:01.351Z,94620.38
2023-05-10T15:52:28.235Z,94622.00
2023-05-10T15:54:54.921Z,94619.06
2023-05-10T15:57:21.561Z,94616.31
2023-05-10T15:59:49.525Z,94610.78
2023-05-10T16:02:17.572Z,94616.72
2023-05-10T16:04:44.664Z,94622.00
2023-05-10T16:07:11.350Z,94621.34
2023-05-10T16:09:38.036Z,94625.59
2023-05-10T16:12:04.944Z,94621.00
2023-05-10T16:14:31.748Z,94630.38
2023-05-10T16:17:08.564Z,94630.00
2023-05-10T16:19:35.366Z,94632.03
2023-05-10T16:22:02.134Z,94632.16
2023-05-10T16:24:28.720Z,94634.69
2023-05-10T16:26:55.318Z,94628.56
2023-05-10T16:29:21.954Z,94630.81
2023-05-10T16:31:48.573Z,94633.53
2023-05-10T16:34:16.683Z,94634.06
2023-05-10T16:36:43.441Z,94637.53
2023-05-10T16:39:10.034Z,94640.09
2023-05-10T16:41:36.679Z,94638.16
2023-05-10T16:44:03.776Z,94641.44
2023-05-10T16:46:30.659Z,94642.03
2023-05-10T16:48:57.642Z,94642.81
2023-05-10T16:51:25.714Z,94641.50
2023-05-10T16:53:52.801Z,94649.25
2023-05-10T16:56:21.714Z,94650.28
2023-05-10T16:58:49.939Z,94641.19
2023-05-10T17:01:16.790Z,94650.00
2023-05-10T17:03:43.557Z,94655.34
2023-05-10T17:06:10.908Z,94654.28
2023-05-10T17:08:38.825Z,94655.34
2023-05-10T17:11:05.514Z,94661.16
2023-05-10T17:13:32.141Z,94661.97
2023-05-10T17:16:03.303Z,94661.16
2023-05-10T17:18:30.218Z,94656.91
2023-05-10T17:20:57.058Z,94663.28
2023-05-10T17:23:23.719Z,94668.41
2023-05-10T17:25:51.615Z,94670.41
2023-05-10T17:28:18.197Z,94665.63
2023-05-10T17:30:44.940Z,94669.16
2023-05-10T17:33:11.574Z,94674.19
2023-05-10T17:35:38.354Z,94676.00
2023-05-10T17:38:04.927Z,94667.63
2023-05-10T17:40:32.044Z,94674.66
2023-05-10T17:43:00.119Z,94677.09
2023-05-10T17:45:26.809Z,94679.47
2023-05-10T17:47:53.427Z,94689.59
2023-05-10T17:50:20.140Z,94698.09
2023-05-10T17:52:46.725Z,94694.66
2023-05-10T17:55:13.334Z,94702.41
2023-05-10T17:57:39.995Z,94706.88
2023-05-10T18:00:09.381Z,94707.03
2023-05-10T18:02:39.504Z,94703.88
2023-05-10T18:05:07.124Z,94704.44
2023-05-10T18:07:34.016Z,94711.38
2023-05-10T18:10:03.651Z,94715.81
2023-05-10T18:12:30.109Z,94719.06
2023-05-10T18:14:56.764Z,94723.53
2023-05-10T18:17:24.821Z,94728.84
2023-05-10T18:19:52.011Z,94730.16
2023-05-10T18:22:18.699Z,94727.47
2023-05-10T18:24:46.972Z,94728.81
2023-05-10T18:27:13.993Z,94732.53
2023-05-10T18:29:40.733Z,94733.84
2023-05-10T18:32:07.414Z,94728.84
2023-05-10T18:34:35.510Z,94719.22
2023-05-10T18:37:07.016Z,94728.56
2023-05-10T18:39:33.804Z,94736.53
2023-05-10T18:42:00.548Z,94727.25
2023-05-10T18:44:27.166Z,94720.31
2023-05-10T18:46:54.256Z,94721.88
2023-05-10T18:49:21.102Z,94710.69
2023-05-10T18:51:49.052Z,94723.47
2023-05-10T18:54:15.733Z,94726.16
2023-05-10T18:56:45.040Z,94716.28
2023-05-10T18:59:11.967Z,94714.97
2023-05-10T19:01:40.445Z,94710.16
2023-05-10T19:04:08.609Z,94706.09
2023-05-10T19:06:35.827Z,94702.66
2023-05-10T19:09:04.202Z,94706.94
2023-05-10T19:11:33.944Z,94706.94
2023-05-10T19:14:01.073Z,94706.34
2023-05-10T19:16:29.847Z,94702.09
2023-05-10T19:18:56.832Z,94703.16
2023-05-10T19:21:24.597Z,94705.31
2023-05-10T19:23:52.015Z,94701.03
2023-05-10T19:26:20.049Z,94706.31
2023-05-10T19:28:46.655Z,94700.19
2023-05-10T19:31:13.553Z,94699.66
2023-05-10T19:33:40.784Z,94708.47
2023-05-10T19:36:10.091Z,94705.31
2023-05-10T19:38:37.290Z,94704.28
2023-05-10T19:41:04.474Z,94703.94
2023-05-10T19:43:34.588Z,94701.84
2023-05-10T19:46:02.415Z,94707.63
2023-05-10T19:48:32.441Z,94709.47
2023-05-10T19:51:01.960Z,94710.78
2023-05-10T19:53:29.298Z,94701.75
2023-05-10T19:55:56.388Z,94706.78
2023-05-10T19:58:23.438Z,94701.22
2023-05-10T20:00:51.409Z,94713.38
2023-05-10T20:03:18.007Z,94707.50
2023-05-10T20:05:44.634Z,94699.13
2023-05-10T20:08:11.234Z,94697.31
2023-05-10T20:10:37.821Z,94702.16
2023-05-10T20:13:04.434Z,94695.56
2023-05-10T20:15:31.104Z,94699.00
2023-05-10T20:17:59.163Z,94697.69
2023-05-10T20:20:25.824Z,94697.09
2023-05-10T20:22:52.536Z,94691.78
2023-05-10T20:25:19.357Z,94689.13
2023-05-10T20:27:46.004Z,94694.44
2023-05-10T20:30:12.828Z,94694.78
2023-05-10T20:32:39.502Z,94694.19
2023-05-10T20:35:08.536Z,94693.41
2023-05-10T20:37:35.367Z,94696.91
2023-05-10T20:40:01.972Z,94690.47
2023-05-10T20:42:28.520Z,94688.88
2023-05-10T20:44:55.177Z,94700.53
2023-05-10T20:47:25.107Z,94688.84
2023-05-10T20:49:51.688Z,94696.00
2023-05-10T20:52:19.647Z,94693.16
2023-05-10T20:54:46.328Z,94692.59
2023-05-10T20:57:12.971Z,94694.09
2023-05-10T20:59:39.530Z,94691.25
2023-05-10T21:02:06.683Z,94685.47
2023-05-10T21:04:33.393Z,94693.41
2023-05-10T21:07:00.143Z,94684.31
2023-05-10T21:09:28.099Z,94683.81
2023-05-10T21:11:54.748Z,94682.16
2023-05-10T21:14:21.483Z,94683.44
2023-05-10T21:16:48.194Z,94680.22
2023-05-10T21:19:14.863Z,94682.16
2023-05-10T21:21:41.490Z,94677.06
2023-05-10T21:24:08.079Z,94683.78
2023-05-10T21:26:36.396Z,94681.53
2023-05-10T21:29:04.731Z,94685.78
2023-05-10T21:31:31.872Z,94687.69
2023-05-10T21:33:58.503Z,94679.50
2023-05-10T21:36:25.498Z,94680.41
2023-05-10T21:38:52.124Z,94686.34
2023-05-10T21:41:18.799Z,94686.63
2023-05-10T21:43:46.781Z,94689.53
2023-05-10T21:46:14.302Z,94687.00
2023-05-10T21:48:41.146Z,94695.88
2023-05-10T21:51:07.796Z,94696.66
2023-05-10T21:53:37.254Z,94692.16
2023-05-10T21:56:03.943Z,94694.56
2023-05-10T21:58:30.608Z,94696.03
2023-05-10T22:00:58.606Z,94698.94
2023-05-10T22:03:26.200Z,94701.19
2023-05-10T22:05:52.971Z,94703.19
2023-05-10T22:08:19.535Z,94698.94
2023-05-10T22:10:46.074Z,94694.44
2023-05-10T22:13:12.643Z,94695.78
2023-05-10T22:15:39.475Z,94700.78
2023-05-10T22:18:07.487Z,94697.63
2023-05-10T22:20:34.177Z,94694.69
2023-05-10T22:23:01.000Z,94695.19
2023-05-10T22:25:28.121Z,94698.13
2023-05-10T22:27:54.709Z,94699.09
2023-05-10T22:30:21.563Z,94694.75
2023-05-10T22:32:48.702Z,94701.47
2023-05-10T22:35:16.692Z,94700.88
2023-05-10T22:37:43.390Z,94692.81
2023-05-10T22:40:11.471Z,94689.16
2023-05-10T22:42:38.364Z,94694.13
2023-05-10T22:45:05.927Z,94695.78
2023-05-10T22:47:33.604Z,94693.78
2023-05-10T22:50:03.216Z,94692.97
2023-05-10T22:52:30.979Z,94688.81
2023-05-10T22:54:57.651Z,94688.03
2023-05-10T22:57:24.532Z,94684.81
2023-05-10T22:59:51.520Z,94691.13
2023-05-10T23:02:18.225Z,94691.53
2023-05-10T23:04:45.110Z,94694.31
2023-05-10T23:07:11.798Z,94698.94
2023-05-10T23:09:39.759Z,94697.72
2023-05-10T23:12:06.528Z,94695.50
2023-05-10T23:14:33.139Z,94694.94
2023-05-10T23:16:59.817Z,94694.94
2023-05-10T23:19:26.418Z,94699.13
2023-05-10T23:21:53.065Z,94699.94
2023-05-10T23:24:19.661Z,94699.13
2023-05-10T23:26:47.567Z,94694.56
2023-05-10T23:29:14.249Z,94699.69
2023-05-10T23:31:45.751Z,94700.50
2023-05-10T23:34:12.492Z,94694.81
2023-05-10T23:36:39.350Z,94698.03
2023-05-10T23:39:06.843Z,94702.66
2023-05-10T23:41:33.514Z,94699.13
2023-05-10T23:44:04.467Z,94691.66
2023-05-10T23:46:31.168Z,94696.44
2023-05-10T23:48:57.755Z,94694.00
2023-05-10T23:51:24.399Z,94696.97
2023-05-10T23:53:50.966Z,94690.81
2023-05-10T23:56:17.576Z,94693.97
2023-05-10T23:58:45.294Z,94690.50
